sensor_id;sensor_type;location;lat;lon;timestamp;temperature;humidity
29281;DHT22;25048;49.590;11.026;2023-03-01T00:02:18;-4.40;99.90
29281;DHT22;25048;49.590;11.026;2023-03-01T00:04:45;-4.30;99.90
29281;DHT22;25048;49.590;11.026;2023-03-01T00:07:13;-4.20;99.90
29281;DHT22;25048;49.590;11.026;2023-03-01T00:09:41;-4.00;99.90
29281;DHT22;25048;49.590;11.026;2023-03-01T00:12:08;-4.10;99.90
29281;DHT22;25048;49.590;11.026;2023-03-01T00:14:36;-3.90;99.90
29281;DHT22;25048;49.590;11.026;2023-03-01T00:17:03;-3.80;99.90
29281;DHT22;25048;49.590;11.026;2023-03-01T00:19:31;-3.70;99.90
29281;DHT22;25048;49.590;11.026;2023-03-01T00:21:59;-3.70;99.90
29281;DHT22;25048;49.590;11.026;2023-03-01T00:24:26;-3.50;99.90
29281;DHT22;25048;49.590;11.026;2023-03-01T00:26:54;-3.30;99.90
29281;DHT22;25048;49.590;11.026;2023-03-01T00:29:24;-3.30;99.90
29281;DHT22;25048;49.590;11.026;2023-03-01T00:31:51;-3.30;99.90
29281;DHT22;25048;49.590;11.026;2023-03-01T00:34:19;-3.30;99.90
29281;DHT22;25048;49.590;11.026;2023-03-01T00:36:46;-3.20;99.90
29281;DHT22;25048;49.590;11.026;2023-03-01T00:39:15;-3.20;99.90
29281;DHT22;25048;49.590;11.026;2023-03-01T00:41:43;-3.10;99.90
29281;DHT22;25048;49.590;11.026;2023-03-01T00:44:10;-3.10;99.90
29281;DHT22;25048;49.590;11.026;2023-03-01T00:46:38;-3.10;99.90
29281;DHT22;25048;49.590;11.026;2023-03-01T00:49:06;-3.20;99.90
29281;DHT22;25048;49.590;11.026;2023-03-01T00:51:33;-3.20;99.90
29281;DHT22;25048;49.590;11.026;2023-03-01T00:54:02;-3.30;99.90
29281;DHT22;25048;49.590;11.026;2023-03-01T00:56:30;-3.30;99.90
29281;DHT22;25048;49.590;11.026;2023-03-01T00:58:58;-3.30;99.90
29281;DHT22;25048;49.590;11.026;2023-03-01T01:01:27;-3.40;99.90
29281;DHT22;25048;49.590;11.026;2023-03-01T01:04:00;-3.50;99.90
29281;DHT22;25048;49.590;11.026;2023-03-01T01:06:30;-3.50;99.90
29281;DHT22;25048;49.590;11.026;2023-03-01T01:08:58;-3.50;99.90
29281;DHT22;25048;49.590;11.026;2023-03-01T01:11:27;-3.60;99.90
29281;DHT22;25048;49.590;11.026;2023-03-01T01:13:55;-3.60;99.90
29281;DHT22;25048;49.590;11.026;2023-03-01T01:16:24;-3.60;99.90
29281;DHT22;25048;49.590;11.026;2023-03-01T01:18:52;-3.60;99.90
29281;DHT22;25048;49.590;11.026;2023-03-01T01:21:22;-3.60;99.90
29281;DHT22;25048;49.590;11.026;2023-03-01T01:23:51;-3.50;99.90
29281;DHT22;25048;49.590;11.026;2023-03-01T01:26:27;-3.60;99.90
29281;DHT22;25048;49.590;11.026;2023-03-01T01:28:55;-3.50;99.90
29281;DHT22;25048;49.590;11.026;2023-03-01T01:31:23;-3.50;99.90
29281;DHT22;25048;49.590;11.026;2023-03-01T01:33:53;-3.50;99.90
29281;DHT22;25048;49.590;11.026;2023-03-01T01:36:21;-3.40;99.90
29281;DHT22;25048;49.590;11.026;2023-03-01T01:38:48;-3.40;99.90
29281;DHT22;25048;49.590;11.026;2023-03-01T01:41:16;-3.40;99.90
29281;DHT22;25048;49.590;11.026;2023-03-01T01:43:46;-3.30;99.90
29281;DHT22;25048;49.590;11.026;2023-03-01T01:46:21;-3.30;99.90
29281;DHT22;25048;49.590;11.026;2023-03-01T01:48:54;-3.30;99.90
29281;DHT22;25048;49.590;11.026;2023-03-01T01:51:24;-3.30;99.90
29281;DHT22;25048;49.590;11.026;2023-03-01T01:53:55;-3.20;99.90
29281;DHT22;25048;49.590;11.026;2023-03-01T01:56:24;-3.20;99.90
29281;DHT22;25048;49.590;11.026;2023-03-01T01:58:53;-3.10;99.90
29281;DHT22;25048;49.590;11.026;2023-03-01T02:01:21;-3.10;99.90
29281;DHT22;25048;49.590;11.026;2023-03-01T02:03:49;-3.10;99.90
29281;DHT22;25048;49.590;11.026;2023-03-01T02:06:31;-3.10;99.90
29281;DHT22;25048;49.590;11.026;2023-03-01T02:09:03;-3.10;99.90
29281;DHT22;25048;49.590;11.026;2023-03-01T02:11:33;-3.10;99.90
29281;DHT22;25048;49.590;11.026;2023-03-01T02:14:00;-3.10;99.90
29281;DHT22;25048;49.590;11.026;2023-03-01T02:16:28;-3.20;99.90
29281;DHT22;25048;49.590;11.026;2023-03-01T02:18:55;-3.30;99.90
29281;DHT22;25048;49.590;11.026;2023-03-01T02:21:59;-3.30;99.90
29281;DHT22;25048;49.590;11.026;2023-03-01T02:24:45;-3.40;99.90
29281;DHT22;25048;49.590;11.026;2023-03-01T02:27:07;-3.50;99.90
29281;DHT22;25048;49.590;11.026;2023-03-01T02:29:36;-3.40;99.90
29281;DHT22;25048;49.590;11.026;2023-03-01T02:32:04;-3.50;99.90
29281;DHT22;25048;49.590;11.026;2023-03-01T02:34:33;-3.50;99.90
29281;DHT22;25048;49.590;11.026;2023-03-01T02:37:03;-3.50;99.90
29281;DHT22;25048;49.590;11.026;2023-03-01T02:39:40;-3.40;99.90
29281;DHT22;25048;49.590;11.026;2023-03-01T02:42:11;-3.40;99.90
29281;DHT22;25048;49.590;11.026;2023-03-01T02:44:38;-3.40;99.90
29281;DHT22;25048;49.590;11.026;2023-03-01T02:47:06;-3.50;99.90
29281;DHT22;25048;49.590;11.026;2023-03-01T02:49:36;-3.50;99.90
29281;DHT22;25048;49.590;11.026;2023-03-01T02:52:34;-3.50;99.90
29281;DHT22;25048;49.590;11.026;2023-03-01T02:55:14;-3.50;99.90
29281;DHT22;25048;49.590;11.026;2023-03-01T02:57:44;-3.50;99.90
29281;DHT22;25048;49.590;11.026;2023-03-01T03:00:15;-3.60;99.90
29281;DHT22;25048;49.590;11.026;2023-03-01T03:02:50;-3.60;99.90
29281;DHT22;25048;49.590;11.026;2023-03-01T03:05:21;-3.60;99.90
29281;DHT22;25048;49.590;11.026;2023-03-01T03:07:49;-3.60;99.90
29281;DHT22;25048;49.590;11.026;2023-03-01T03:10:23;-3.60;99.90
29281;DHT22;25048;49.590;11.026;2023-03-01T03:12:53;-3.60;99.90
29281;DHT22;25048;49.590;11.026;2023-03-01T03:15:22;-3.70;99.90
29281;DHT22;25048;49.590;11.026;2023-03-01T03:17:50;-3.80;99.90
29281;DHT22;25048;49.590;11.026;2023-03-01T03:20:20;-3.90;99.90
29281;DHT22;25048;49.590;11.026;2023-03-01T03:22:50;-3.90;99.90
29281;DHT22;25048;49.590;11.026;2023-03-01T03:25:18;-3.90;99.90
29281;DHT22;25048;49.590;11.026;2023-03-01T03:27:48;-4.00;99.90
29281;DHT22;25048;49.590;11.026;2023-03-01T03:30:18;-4.00;99.90
29281;DHT22;25048;49.590;11.026;2023-03-01T03:32:48;-4.00;99.90
29281;DHT22;25048;49.590;11.026;2023-03-01T03:37:52;-4.00;99.90
29281;DHT22;25048;49.590;11.026;2023-03-01T03:40:35;-3.90;99.90
29281;DHT22;25048;49.590;11.026;2023-03-01T03:42:59;-3.80;99.90
29281;DHT22;25048;49.590;11.026;2023-03-01T03:45:27;-3.80;99.90
29281;DHT22;25048;49.590;11.026;2023-03-01T03:47:54;-3.70;99.90
29281;DHT22;25048;49.590;11.026;2023-03-01T03:50:22;-3.60;99.90
29281;DHT22;25048;49.590;11.026;2023-03-01T03:52:49;-3.50;99.90
29281;DHT22;25048;49.590;11.026;2023-03-01T03:55:17;-3.50;99.90
29281;DHT22;25048;49.590;11.026;2023-03-01T03:57:47;-3.50;99.90
29281;DHT22;25048;49.590;11.026;2023-03-01T04:00:22;-3.50;99.90
29281;DHT22;25048;49.590;11.026;2023-03-01T04:02:51;-3.50;99.90
29281;DHT22;25048;49.590;11.026;2023-03-01T04:05:20;-3.60;99.90
29281;DHT22;25048;49.590;11.026;2023-03-01T04:07:47;-3.70;99.90
29281;DHT22;25048;49.590;11.026;2023-03-01T04:10:17;-3.70;99.90
29281;DHT22;25048;49.590;11.026;2023-03-01T04:12:45;-3.80;99.90
29281;DHT22;25048;49.590;11.026;2023-03-01T04:15:12;-3.80;99.90
29281;DHT22;25048;49.590;11.026;2023-03-01T04:17:41;-3.80;99.90
29281;DHT22;25048;49.590;11.026;2023-03-01T04:20:13;-3.80;99.90
29281;DHT22;25048;49.590;11.026;2023-03-01T04:22:42;-3.90;99.90
29281;DHT22;25048;49.590;11.026;2023-03-01T04:25:12;-3.90;99.90
29281;DHT22;25048;49.590;11.026;2023-03-01T04:27:41;-4.00;99.90
29281;DHT22;25048;49.590;11.026;2023-03-01T04:30:09;-4.00;99.90
29281;DHT22;25048;49.590;11.026;2023-03-01T04:32:37;-4.10;99.90
29281;DHT22;25048;49.590;11.026;2023-03-01T04:35:04;-4.20;99.90
29281;DHT22;25048;49.590;11.026;2023-03-01T04:37:32;-4.20;99.90
29281;DHT22;25048;49.590;11.026;2023-03-01T04:40:02;-4.30;99.90
29281;DHT22;25048;49.590;11.026;2023-03-01T04:42:37;-4.30;99.90
29281;DHT22;25048;49.590;11.026;2023-03-01T04:45:05;-4.30;99.90
29281;DHT22;25048;49.590;11.026;2023-03-01T04:47:35;-4.30;99.90
29281;DHT22;25048;49.590;11.026;2023-03-01T04:50:04;-4.30;99.90
29281;DHT22;25048;49.590;11.026;2023-03-01T04:52:32;-4.30;99.90
29281;DHT22;25048;49.590;11.026;2023-03-01T04:55:00;-4.30;99.90
29281;DHT22;25048;49.590;11.026;2023-03-01T04:57:27;-4.30;99.90
29281;DHT22;25048;49.590;11.026;2023-03-01T04:59:55;-4.30;99.90
29281;DHT22;25048;49.590;11.026;2023-03-01T05:02:22;-4.20;99.90
29281;DHT22;25048;49.590;11.026;2023-03-01T05:04:50;-4.10;99.90
29281;DHT22;25048;49.590;11.026;2023-03-01T05:07:18;-4.10;99.90
29281;DHT22;25048;49.590;11.026;2023-03-01T05:09:48;-4.00;99.90
29281;DHT22;25048;49.590;11.026;2023-03-01T05:12:15;-3.90;99.90
29281;DHT22;25048;49.590;11.026;2023-03-01T05:14:43;-4.00;99.90
29281;DHT22;25048;49.590;11.026;2023-03-01T05:17:10;-4.00;99.90
29281;DHT22;25048;49.590;11.026;2023-03-01T05:19:38;-4.10;99.90
29281;DHT22;25048;49.590;11.026;2023-03-01T05:22:07;-4.10;99.90
29281;DHT22;25048;49.590;11.026;2023-03-01T05:24:35;-4.20;99.90
29281;DHT22;25048;49.590;11.026;2023-03-01T05:27:03;-4.20;99.90
29281;DHT22;25048;49.590;11.026;2023-03-01T05:29:31;-4.30;99.90
29281;DHT22;25048;49.590;11.026;2023-03-01T05:32:02;-4.30;99.90
29281;DHT22;25048;49.590;11.026;2023-03-01T05:34:32;-4.30;99.90
29281;DHT22;25048;49.590;11.026;2023-03-01T05:37:00;-4.30;99.90
29281;DHT22;25048;49.590;11.026;2023-03-01T05:39:28;-4.40;99.90
29281;DHT22;25048;49.590;11.026;2023-03-01T05:42:00;-4.40;99.90
29281;DHT22;25048;49.590;11.026;2023-03-01T05:44:29;-4.40;99.90
29281;DHT22;25048;49.590;11.026;2023-03-01T05:46:56;-4.40;99.90
29281;DHT22;25048;49.590;11.026;2023-03-01T05:49:24;-4.30;99.90
29281;DHT22;25048;49.590;11.026;2023-03-01T05:51:53;-4.30;99.90
29281;DHT22;25048;49.590;11.026;2023-03-01T05:54:21;-4.20;99.90
29281;DHT22;25048;49.590;11.026;2023-03-01T05:56:49;-4.20;99.90
29281;DHT22;25048;49.590;11.026;2023-03-01T05:59:16;-4.30;99.90
29281;DHT22;25048;49.590;11.026;2023-03-01T06:01:44;-4.20;99.90
29281;DHT22;25048;49.590;11.026;2023-03-01T06:04:11;-4.30;99.90
29281;DHT22;25048;49.590;11.026;2023-03-01T06:06:39;-4.30;99.90
29281;DHT22;25048;49.590;11.026;2023-03-01T06:09:07;-4.40;99.90
29281;DHT22;25048;49.590;11.026;2023-03-01T06:11:36;-4.50;99.90
29281;DHT22;25048;49.590;11.026;2023-03-01T06:14:04;-4.60;99.90
29281;DHT22;25048;49.590;11.026;2023-03-01T06:16:32;-4.70;99.90
29281;DHT22;25048;49.590;11.026;2023-03-01T06:19:00;-4.70;99.90
29281;DHT22;25048;49.590;11.026;2023-03-01T06:21:27;-4.60;99.90
29281;DHT22;25048;49.590;11.026;2023-03-01T06:23:55;-4.50;99.90
29281;DHT22;25048;49.590;11.026;2023-03-01T06:26:22;-4.50;99.90
29281;DHT22;25048;49.590;11.026;2023-03-01T06:28:50;-4.40;99.90
29281;DHT22;25048;49.590;11.026;2023-03-01T06:31:18;-4.30;99.90
29281;DHT22;25048;49.590;11.026;2023-03-01T06:33:45;-4.20;99.90
29281;DHT22;25048;49.590;11.026;2023-03-01T06:36:13;-4.10;99.90
29281;DHT22;25048;49.590;11.026;2023-03-01T06:38:40;-4.00;99.90
29281;DHT22;25048;49.590;11.026;2023-03-01T06:41:08;-3.80;99.90
29281;DHT22;25048;49.590;11.026;2023-03-01T06:43:35;-3.70;99.90
29281;DHT22;25048;49.590;11.026;2023-03-01T06:46:06;-3.60;99.90
29281;DHT22;25048;49.590;11.026;2023-03-01T06:48:34;-3.50;99.90
29281;DHT22;25048;49.590;11.026;2023-03-01T06:51:02;-3.30;99.90
29281;DHT22;25048;49.590;11.026;2023-03-01T06:53:30;-3.20;99.90
29281;DHT22;25048;49.590;11.026;2023-03-01T06:55:57;-3.00;99.90
29281;DHT22;25048;49.590;11.026;2023-03-01T06:58:26;-2.80;99.90
29281;DHT22;25048;49.590;11.026;2023-03-01T07:00:54;-2.50;99.90
29281;DHT22;25048;49.590;11.026;2023-03-01T07:03:21;-2.40;99.90
29281;DHT22;25048;49.590;11.026;2023-03-01T07:05:50;-2.20;99.90
29281;DHT22;25048;49.590;11.026;2023-03-01T07:08:19;-2.10;99.90
29281;DHT22;25048;49.590;11.026;2023-03-01T07:10:47;-1.90;99.90
29281;DHT22;25048;49.590;11.026;2023-03-01T07:13:15;-1.70;99.90
29281;DHT22;25048;49.590;11.026;2023-03-01T07:15:42;-1.50;99.90
29281;DHT22;25048;49.590;11.026;2023-03-01T07:18:10;-1.30;99.90
29281;DHT22;25048;49.590;11.026;2023-03-01T07:20:37;-1.20;99.90
29281;DHT22;25048;49.590;11.026;2023-03-01T07:23:05;-1.00;99.90
29281;DHT22;25048;49.590;11.026;2023-03-01T07:25:33;-0.80;99.90
29281;DHT22;25048;49.590;11.026;2023-03-01T07:28:01;-0.70;99.90
29281;DHT22;25048;49.590;11.026;2023-03-01T07:30:28;-0.50;99.90
29281;DHT22;25048;49.590;11.026;2023-03-01T07:32:57;-0.40;99.90
29281;DHT22;25048;49.590;11.026;2023-03-01T07:35:28;-0.20;99.90
29281;DHT22;25048;49.590;11.026;2023-03-01T07:37:55;0.00;99.90
29281;DHT22;25048;49.590;11.026;2023-03-01T07:40:23;0.20;99.90
29281;DHT22;25048;49.590;11.026;2023-03-01T07:42:57;0.30;99.90
29281;DHT22;25048;49.590;11.026;2023-03-01T07:45:21;0.50;99.90
29281;DHT22;25048;49.590;11.026;2023-03-01T07:47:51;0.60;99.90
29281;DHT22;25048;49.590;11.026;2023-03-01T07:50:19;0.70;99.90
29281;DHT22;25048;49.590;11.026;2023-03-01T07:52:48;0.90;99.90
29281;DHT22;25048;49.590;11.026;2023-03-01T07:55:16;1.00;99.90
29281;DHT22;25048;49.590;11.026;2023-03-01T07:57:44;1.20;99.90
29281;DHT22;25048;49.590;11.026;2023-03-01T08:00:12;1.30;99.90
29281;DHT22;25048;49.590;11.026;2023-03-01T08:02:39;1.50;99.90
29281;DHT22;25048;49.590;11.026;2023-03-01T08:05:09;1.70;99.90
29281;DHT22;25048;49.590;11.026;2023-03-01T08:07:37;1.80;99.90
29281;DHT22;25048;49.590;11.026;2023-03-01T08:10:04;1.90;99.90
29281;DHT22;25048;49.590;11.026;2023-03-01T08:12:32;2.00;99.90
29281;DHT22;25048;49.590;11.026;2023-03-01T08:15:00;2.10;99.90
29281;DHT22;25048;49.590;11.026;2023-03-01T08:17:27;2.40;99.90
29281;DHT22;25048;49.590;11.026;2023-03-01T08:19:55;2.50;99.90
29281;DHT22;25048;49.590;11.026;2023-03-01T08:22:22;2.70;99.90
29281;DHT22;25048;49.590;11.026;2023-03-01T08:24:49;2.80;99.90
29281;DHT22;25048;49.590;11.026;2023-03-01T08:27:17;2.80;99.90
29281;DHT22;25048;49.590;11.026;2023-03-01T08:29:44;3.00;99.90
29281;DHT22;25048;49.590;11.026;2023-03-01T08:32:12;3.10;99.90
29281;DHT22;25048;49.590;11.026;2023-03-01T08:34:40;3.20;99.90
29281;DHT22;25048;49.590;11.026;2023-03-01T08:37:07;3.40;99.90
29281;DHT22;25048;49.590;11.026;2023-03-01T08:39:36;3.50;99.90
29281;DHT22;25048;49.590;11.026;2023-03-01T08:42:03;3.50;99.90
29281;DHT22;25048;49.590;11.026;2023-03-01T08:44:31;3.50;99.90
29281;DHT22;25048;49.590;11.026;2023-03-01T08:46:58;3.60;99.90
29281;DHT22;25048;49.590;11.026;2023-03-01T08:49:26;3.70;99.90
29281;DHT22;25048;49.590;11.026;2023-03-01T08:51:53;3.80;99.90
29281;DHT22;25048;49.590;11.026;2023-03-01T08:54:22;4.00;99.90
29281;DHT22;25048;49.590;11.026;2023-03-01T08:56:49;4.10;99.90
29281;DHT22;25048;49.590;11.026;2023-03-01T08:59:18;4.20;99.90
29281;DHT22;25048;49.590;11.026;2023-03-01T09:01:45;4.30;99.90
29281;DHT22;25048;49.590;11.026;2023-03-01T09:04:14;4.50;99.90
29281;DHT22;25048;49.590;11.026;2023-03-01T09:06:42;4.60;99.90
29281;DHT22;25048;49.590;11.026;2023-03-01T09:09:15;4.60;99.90
29281;DHT22;25048;49.590;11.026;2023-03-01T09:11:43;4.70;99.90
29281;DHT22;25048;49.590;11.026;2023-03-01T09:14:13;4.60;99.90
29281;DHT22;25048;49.590;11.026;2023-03-01T09:16:40;4.30;99.90
29281;DHT22;25048;49.590;11.026;2023-03-01T09:19:08;4.50;99.90
29281;DHT22;25048;49.590;11.026;2023-03-01T09:21:35;4.50;99.90
29281;DHT22;25048;49.590;11.026;2023-03-01T09:24:05;4.60;99.90
29281;DHT22;25048;49.590;11.026;2023-03-01T09:26:32;4.80;99.90
29281;DHT22;25048;49.590;11.026;2023-03-01T09:29:00;4.90;99.90
29281;DHT22;25048;49.590;11.026;2023-03-01T09:31:27;5.10;99.90
29281;DHT22;25048;49.590;11.026;2023-03-01T09:33:55;5.20;99.90
29281;DHT22;25048;49.590;11.026;2023-03-01T09:36:24;5.20;99.90
29281;DHT22;25048;49.590;11.026;2023-03-01T09:38:52;5.20;99.90
29281;DHT22;25048;49.590;11.026;2023-03-01T09:41:43;5.30;99.90
29281;DHT22;25048;49.590;11.026;2023-03-01T09:47:14;5.60;99.90
29281;DHT22;25048;49.590;11.026;2023-03-01T09:49:43;5.70;99.90
29281;DHT22;25048;49.590;11.026;2023-03-01T09:52:23;5.70;99.90
29281;DHT22;25048;49.590;11.026;2023-03-01T09:54:53;5.50;99.90
29281;DHT22;25048;49.590;11.026;2023-03-01T09:57:38;5.70;99.90
29281;DHT22;25048;49.590;11.026;2023-03-01T10:00:19;6.00;99.90
29281;DHT22;25048;49.590;11.026;2023-03-01T10:02:57;6.20;99.90
29281;DHT22;25048;49.590;11.026;2023-03-01T10:10:43;6.60;98.60
29281;DHT22;25048;49.590;11.026;2023-03-01T10:13:19;6.80;98.20
29281;DHT22;25048;49.590;11.026;2023-03-01T10:15:49;7.00;97.70
29281;DHT22;25048;49.590;11.026;2023-03-01T10:18:21;7.00;96.90
29281;DHT22;25048;49.590;11.026;2023-03-01T10:21:02;7.20;97.00
29281;DHT22;25048;49.590;11.026;2023-03-01T10:23:32;7.30;96.30
29281;DHT22;25048;49.590;11.026;2023-03-01T10:31:36;8.00;95.20
29281;DHT22;25048;49.590;11.026;2023-03-01T10:34:09;8.00;93.80
29281;DHT22;25048;49.590;11.026;2023-03-01T10:36:34;8.10;94.30
29281;DHT22;25048;49.590;11.026;2023-03-01T10:39:03;8.40;94.10
29281;DHT22;25048;49.590;11.026;2023-03-01T10:41:32;8.60;93.30
29281;DHT22;25048;49.590;11.026;2023-03-01T10:43:59;8.60;91.60
29281;DHT22;25048;49.590;11.026;2023-03-01T10:46:35;8.70;93.30
29281;DHT22;25048;49.590;11.026;2023-03-01T10:49:22;8.80;92.40
29281;DHT22;25048;49.590;11.026;2023-03-01T10:51:53;8.90;91.60
29281;DHT22;25048;49.590;11.026;2023-03-01T10:54:32;8.80;92.00
29281;DHT22;25048;49.590;11.026;2023-03-01T10:57:03;8.90;92.00
29281;DHT22;25048;49.590;11.026;2023-03-01T10:59:35;8.70;91.70
29281;DHT22;25048;49.590;11.026;2023-03-01T11:02:20;9.00;91.60
29281;DHT22;25048;49.590;11.026;2023-03-01T11:07:54;9.60;91.70
29281;DHT22;25048;49.590;11.026;2023-03-01T11:10:37;10.00;90.70
29281;DHT22;25048;49.590;11.026;2023-03-01T11:13:16;10.20;90.90
29281;DHT22;25048;49.590;11.026;2023-03-01T11:15:58;9.90;87.50
29281;DHT22;25048;49.590;11.026;2023-03-01T11:18:27;9.80;86.80
29281;DHT22;25048;49.590;11.026;2023-03-01T11:20:56;9.80;87.40
29281;DHT22;25048;49.590;11.026;2023-03-01T11:23:25;10.00;89.20
29281;DHT22;25048;49.590;11.026;2023-03-01T11:25:57;10.20;86.30
29281;DHT22;25048;49.590;11.026;2023-03-01T11:28:27;10.30;85.40
29281;DHT22;25048;49.590;11.026;2023-03-01T11:31:03;10.30;84.50
29281;DHT22;25048;49.590;11.026;2023-03-01T11:36:42;10.70;86.20
29281;DHT22;25048;49.590;11.026;2023-03-01T11:39:37;11.00;87.00
29281;DHT22;25048;49.590;11.026;2023-03-01T11:44:58;11.40;83.40
29281;DHT22;25048;49.590;11.026;2023-03-01T11:53:05;10.80;81.80
29281;DHT22;25048;49.590;11.026;2023-03-01T11:56:00;10.70;82.90
29281;DHT22;25048;49.590;11.026;2023-03-01T11:58:54;10.90;82.40
29281;DHT22;25048;49.590;11.026;2023-03-01T12:01:33;10.70;81.20
29281;DHT22;25048;49.590;11.026;2023-03-01T12:04:32;10.80;82.50
29281;DHT22;25048;49.590;11.026;2023-03-01T12:07:05;11.00;81.40
29281;DHT22;25048;49.590;11.026;2023-03-01T12:09:38;11.10;82.30
29281;DHT22;25048;49.590;11.026;2023-03-01T12:18:12;11.60;80.90
29281;DHT22;25048;49.590;11.026;2023-03-01T12:20:29;11.90;81.60
29281;DHT22;25048;49.590;11.026;2023-03-01T12:23:35;12.20;80.80
29281;DHT22;25048;49.590;11.026;2023-03-01T12:26:33;12.10;77.20
29281;DHT22;25048;49.590;11.026;2023-03-01T12:29:23;12.10;78.10
29281;DHT22;25048;49.590;11.026;2023-03-01T12:34:59;11.90;76.30
29281;DHT22;25048;49.590;11.026;2023-03-01T12:43:04;12.40;77.60
29281;DHT22;25048;49.590;11.026;2023-03-01T12:50:38;12.70;77.90
29281;DHT22;25048;49.590;11.026;2023-03-01T12:53:07;12.70;77.10
29281;DHT22;25048;49.590;11.026;2023-03-01T12:55:42;12.90;78.50
29281;DHT22;25048;49.590;11.026;2023-03-01T12:58:24;12.90;74.60
29281;DHT22;25048;49.590;11.026;2023-03-01T13:01:31;13.10;77.30
29281;DHT22;25048;49.590;11.026;2023-03-01T13:15:47;13.50;71.50
29281;DHT22;25048;49.590;11.026;2023-03-01T13:20:54;13.60;71.40
29281;DHT22;25048;49.590;11.026;2023-03-01T13:23:29;14.20;72.50
29281;DHT22;25048;49.590;11.026;2023-03-01T13:26:06;13.80;71.10
29281;DHT22;25048;49.590;11.026;2023-03-01T13:39:02;15.70;68.50
29281;DHT22;25048;49.590;11.026;2023-03-01T13:49:54;17.30;62.10
29281;DHT22;25048;49.590;11.026;2023-03-01T13:52:41;17.30;61.40
29281;DHT22;25048;49.590;11.026;2023-03-01T13:55:20;18.00;61.50
29281;DHT22;25048;49.590;11.026;2023-03-01T13:57:57;18.70;58.60
29281;DHT22;25048;49.590;11.026;2023-03-01T14:00:38;19.10;58.00
29281;DHT22;25048;49.590;11.026;2023-03-01T14:03:06;19.10;57.80
29281;DHT22;25048;49.590;11.026;2023-03-01T14:05:34;19.30;56.40
29281;DHT22;25048;49.590;11.026;2023-03-01T14:08:03;19.00;55.30
29281;DHT22;25048;49.590;11.026;2023-03-01T14:10:53;18.70;55.40
29281;DHT22;25048;49.590;11.026;2023-03-01T14:19:14;18.00;56.40
29281;DHT22;25048;49.590;11.026;2023-03-01T14:21:43;17.70;55.50
29281;DHT22;25048;49.590;11.026;2023-03-01T14:24:21;17.20;55.30
29281;DHT22;25048;49.590;11.026;2023-03-01T14:26:50;16.80;57.20
29281;DHT22;25048;49.590;11.026;2023-03-01T14:29:38;16.60;57.40
29281;DHT22;25048;49.590;11.026;2023-03-01T14:32:27;17.30;57.90
29281;DHT22;25048;49.590;11.026;2023-03-01T14:34:54;17.30;57.60
29281;DHT22;25048;49.590;11.026;2023-03-01T14:37:28;17.70;56.30
29281;DHT22;25048;49.590;11.026;2023-03-01T14:40:01;18.00;55.50
29281;DHT22;25048;49.590;11.026;2023-03-01T14:42:36;18.60;53.90
29281;DHT22;25048;49.590;11.026;2023-03-01T14:45:13;19.10;53.10
29281;DHT22;25048;49.590;11.026;2023-03-01T14:47:35;18.30;54.40
29281;DHT22;25048;49.590;11.026;2023-03-01T14:50:13;19.00;54.20
29281;DHT22;25048;49.590;11.026;2023-03-01T14:52:40;19.00;54.10
29281;DHT22;25048;49.590;11.026;2023-03-01T14:55:20;18.90;52.60
29281;DHT22;25048;49.590;11.026;2023-03-01T14:57:50;18.50;53.70
29281;DHT22;25048;49.590;11.026;2023-03-01T15:00:26;18.40;53.40
29281;DHT22;25048;49.590;11.026;2023-03-01T15:02:56;18.40;53.90
29281;DHT22;25048;49.590;11.026;2023-03-01T15:05:31;19.50;54.20
29281;DHT22;25048;49.590;11.026;2023-03-01T15:07:56;19.60;50.90
29281;DHT22;25048;49.590;11.026;2023-03-01T15:10:31;19.90;51.40
29281;DHT22;25048;49.590;11.026;2023-03-01T15:12:55;20.40;50.30
29281;DHT22;25048;49.590;11.026;2023-03-01T15:15:31;20.40;50.30
29281;DHT22;25048;49.590;11.026;2023-03-01T15:18:13;20.40;49.90
29281;DHT22;25048;49.590;11.026;2023-03-01T15:20:35;20.20;50.00
29281;DHT22;25048;49.590;11.026;2023-03-01T15:23:03;19.60;50.70
29281;DHT22;25048;49.590;11.026;2023-03-01T15:25:32;19.50;50.60
29281;DHT22;25048;49.590;11.026;2023-03-01T15:28:01;19.40;50.60
29281;DHT22;25048;49.590;11.026;2023-03-01T15:30:33;18.90;51.20
29281;DHT22;25048;49.590;11.026;2023-03-01T15:35:56;16.60;54.60
29281;DHT22;25048;49.590;11.026;2023-03-01T15:38:33;16.30;56.20
29281;DHT22;25048;49.590;11.026;2023-03-01T15:41:06;15.30;56.00
29281;DHT22;25048;49.590;11.026;2023-03-01T15:43:39;15.30;57.40
29281;DHT22;25048;49.590;11.026;2023-03-01T15:48:58;16.70;56.30
29281;DHT22;25048;49.590;11.026;2023-03-01T15:51:32;16.60;56.10
29281;DHT22;25048;49.590;11.026;2023-03-01T15:54:06;16.30;56.50
29281;DHT22;25048;49.590;11.026;2023-03-01T15:56:34;16.20;56.30
29281;DHT22;25048;49.590;11.026;2023-03-01T15:59:02;16.20;56.40
29281;DHT22;25048;49.590;11.026;2023-03-01T16:01:30;15.70;57.50
29281;DHT22;25048;49.590;11.026;2023-03-01T16:03:59;15.70;57.50
29281;DHT22;25048;49.590;11.026;2023-03-01T16:06:26;14.90;58.10
29281;DHT22;25048;49.590;11.026;2023-03-01T16:08:54;14.20;59.70
29281;DHT22;25048;49.590;11.026;2023-03-01T16:11:22;13.10;61.90
29281;DHT22;25048;49.590;11.026;2023-03-01T16:13:49;12.00;65.30
29281;DHT22;25048;49.590;11.026;2023-03-01T16:16:18;10.90;67.00
29281;DHT22;25048;49.590;11.026;2023-03-01T16:18:46;10.00;70.30
29281;DHT22;25048;49.590;11.026;2023-03-01T16:21:21;9.40;71.80
29281;DHT22;25048;49.590;11.026;2023-03-01T16:23:45;9.00;74.20
29281;DHT22;25048;49.590;11.026;2023-03-01T16:26:12;8.60;75.00
29281;DHT22;25048;49.590;11.026;2023-03-01T16:28:41;8.30;76.20
29281;DHT22;25048;49.590;11.026;2023-03-01T16:31:09;8.10;77.10
29281;DHT22;25048;49.590;11.026;2023-03-01T16:33:37;7.90;78.60
29281;DHT22;25048;49.590;11.026;2023-03-01T16:36:09;7.70;79.60
29281;DHT22;25048;49.590;11.026;2023-03-01T16:38:38;7.50;80.60
29281;DHT22;25048;49.590;11.026;2023-03-01T16:41:05;7.30;81.90
29281;DHT22;25048;49.590;11.026;2023-03-01T16:43:34;7.20;82.00
29281;DHT22;25048;49.590;11.026;2023-03-01T16:46:04;7.00;83.70
29281;DHT22;25048;49.590;11.026;2023-03-01T16:48:31;6.90;83.70
29281;DHT22;25048;49.590;11.026;2023-03-01T16:50:59;6.70;85.00
29281;DHT22;25048;49.590;11.026;2023-03-01T16:53:28;6.60;85.60
29281;DHT22;25048;49.590;11.026;2023-03-01T16:55:57;6.40;86.50
29281;DHT22;25048;49.590;11.026;2023-03-01T16:58:24;6.30;87.90
29281;DHT22;25048;49.590;11.026;2023-03-01T17:00:53;6.20;88.00
29281;DHT22;25048;49.590;11.026;2023-03-01T17:03:22;6.00;89.30
29281;DHT22;25048;49.590;11.026;2023-03-01T17:05:50;5.90;90.20
29281;DHT22;25048;49.590;11.026;2023-03-01T17:08:17;5.70;90.80
29281;DHT22;25048;49.590;11.026;2023-03-01T17:10:45;5.60;91.30
29281;DHT22;25048;49.590;11.026;2023-03-01T17:13:12;5.50;91.40
29281;DHT22;25048;49.590;11.026;2023-03-01T17:15:41;5.40;91.80
29281;DHT22;25048;49.590;11.026;2023-03-01T17:18:09;5.30;92.10